8A3

Livingston Municipal Airport

Livingston, Tennessee, USA
METAR K8A3 160535Z AUTO 22005KT 10SM OVC009 M01/M02 A3023 RMK A01
Observed Flight Rules
Jan-16 @ 05:35 UTC (21 minutes ago) Instrument Flight Rules
Wind Visibility Clouds
220° at 5 knots 10 miles
  • Overcast at 900' AGL
Temperatures Readings
Current -1°C / 30°F
Dewpoint -2°C / 28°F
Humidity 93%
Altimeter 30.23" Hg
Pressure 1023.72 hPa
Elevation 419
METAR K8A3 160535Z AUTO 22005KT 10SM OVC009 M01/M02 A3023 RMK A01
Observed Flight Rules
Jan-16 @ 05:35 UTC
(21 minutes ago)
IFR
Wind Visibility
220° at 5 knots 10 miles
Clouds
  • Overcast at 900' AGL
Temperature Dewpoint
-1°C / 30°F -2°C / 28°F
Humidity Altimeter Pressure
93% 30.23" Hg 1023.72 hPa